sensor_id;sensor_type;location;lat;lon;timestamp;pressure;altitude;pressure_sealevel;temperature
20103;BMP180;10210;52.284;9.892;2023-03-01T00:02:21;102029.00;;;5.80
20103;BMP180;10210;52.284;9.892;2023-03-01T00:04:47;102024.00;;;5.80
20103;BMP180;10210;52.284;9.892;2023-03-01T00:07:12;102031.00;;;5.80
20103;BMP180;10210;52.284;9.892;2023-03-01T00:09:38;102036.00;;;5.80
20103;BMP180;10210;52.284;9.892;2023-03-01T00:12:06;102042.00;;;5.70
20103;BMP180;10210;52.284;9.892;2023-03-01T00:14:32;102035.00;;;5.70
20103;BMP180;10210;52.284;9.892;2023-03-01T00:16:58;102036.00;;;5.70
20103;BMP180;10210;52.284;9.892;2023-03-01T00:19:23;102043.00;;;5.60
20103;BMP180;10210;52.284;9.892;2023-03-01T00:21:49;102040.00;;;5.60
20103;BMP180;10210;52.284;9.892;2023-03-01T00:24:15;102042.00;;;5.50
20103;BMP180;10210;52.284;9.892;2023-03-01T00:26:42;102037.00;;;5.50
20103;BMP180;10210;52.284;9.892;2023-03-01T00:29:07;102031.00;;;5.50
20103;BMP180;10210;52.284;9.892;2023-03-01T00:31:33;102037.00;;;5.40
20103;BMP180;10210;52.284;9.892;2023-03-01T00:34:03;102033.00;;;5.40
20103;BMP180;10210;52.284;9.892;2023-03-01T00:36:32;102026.00;;;5.40
20103;BMP180;10210;52.284;9.892;2023-03-01T00:38:59;102024.00;;;5.30
20103;BMP180;10210;52.284;9.892;2023-03-01T00:41:25;102011.00;;;5.30
20103;BMP180;10210;52.284;9.892;2023-03-01T00:43:54;102020.00;;;5.30
20103;BMP180;10210;52.284;9.892;2023-03-01T00:46:25;102015.00;;;5.30
20103;BMP180;10210;52.284;9.892;2023-03-01T00:48:51;102016.00;;;5.20
20103;BMP180;10210;52.284;9.892;2023-03-01T00:51:21;102012.00;;;5.20
20103;BMP180;10210;52.284;9.892;2023-03-01T00:53:51;102019.00;;;5.20
20103;BMP180;10210;52.284;9.892;2023-03-01T00:56:18;102010.00;;;5.20
20103;BMP180;10210;52.284;9.892;2023-03-01T00:58:44;102025.00;;;5.20
20103;BMP180;10210;52.284;9.892;2023-03-01T01:01:18;102022.00;;;5.20
20103;BMP180;10210;52.284;9.892;2023-03-01T01:04:03;102029.00;;;5.10
20103;BMP180;10210;52.284;9.892;2023-03-01T01:06:42;102022.00;;;5.00
20103;BMP180;10210;52.284;9.892;2023-03-01T01:09:10;102018.00;;;5.00
20103;BMP180;10210;52.284;9.892;2023-03-01T01:11:50;102017.00;;;5.00
20103;BMP180;10210;52.284;9.892;2023-03-01T01:14:18;102014.00;;;4.90
20103;BMP180;10210;52.284;9.892;2023-03-01T01:16:43;102021.00;;;4.90
20103;BMP180;10210;52.284;9.892;2023-03-01T01:19:11;102013.00;;;4.90
20103;BMP180;10210;52.284;9.892;2023-03-01T01:21:37;102008.00;;;4.90
20103;BMP180;10210;52.284;9.892;2023-03-01T01:24:04;102003.00;;;4.90
20103;BMP180;10210;52.284;9.892;2023-03-01T01:26:33;101999.00;;;4.80
20103;BMP180;10210;52.284;9.892;2023-03-01T01:29:03;101998.00;;;4.80
20103;BMP180;10210;52.284;9.892;2023-03-01T01:31:30;102006.00;;;4.80
20103;BMP180;10210;52.284;9.892;2023-03-01T01:33:58;102007.00;;;4.80
20103;BMP180;10210;52.284;9.892;2023-03-01T01:36:24;101997.00;;;4.70
20103;BMP180;10210;52.284;9.892;2023-03-01T01:38:50;102004.00;;;4.70
20103;BMP180;10210;52.284;9.892;2023-03-01T01:41:18;101991.00;;;4.70
20103;BMP180;10210;52.284;9.892;2023-03-01T01:43:48;101984.00;;;4.70
20103;BMP180;10210;52.284;9.892;2023-03-01T01:46:28;101983.00;;;4.70
20103;BMP180;10210;52.284;9.892;2023-03-01T01:52:18;101992.00;;;4.60
20103;BMP180;10210;52.284;9.892;2023-03-01T01:55:08;102000.00;;;4.60
20103;BMP180;10210;52.284;9.892;2023-03-01T01:57:50;101987.00;;;4.60
20103;BMP180;10210;52.284;9.892;2023-03-01T02:00:25;101985.00;;;4.60
20103;BMP180;10210;52.284;9.892;2023-03-01T02:03:05;101977.00;;;4.50
20103;BMP180;10210;52.284;9.892;2023-03-01T02:08:33;101978.00;;;4.50
20103;BMP180;10210;52.284;9.892;2023-03-01T02:11:01;101975.00;;;4.40
20103;BMP180;10210;52.284;9.892;2023-03-01T02:13:31;101982.00;;;4.40
20103;BMP180;10210;52.284;9.892;2023-03-01T02:15:58;101981.00;;;4.40
20103;BMP180;10210;52.284;9.892;2023-03-01T02:18:24;101972.00;;;4.40
20103;BMP180;10210;52.284;9.892;2023-03-01T02:21:11;101968.00;;;4.40
20103;BMP180;10210;52.284;9.892;2023-03-01T02:23:40;101969.00;;;4.40
20103;BMP180;10210;52.284;9.892;2023-03-01T02:28:45;101960.00;;;4.40
20103;BMP180;10210;52.284;9.892;2023-03-01T02:31:16;101962.00;;;4.40
20103;BMP180;10210;52.284;9.892;2023-03-01T02:34:02;101957.00;;;4.30
20103;BMP180;10210;52.284;9.892;2023-03-01T02:36:36;101956.00;;;4.30
20103;BMP180;10210;52.284;9.892;2023-03-01T02:39:06;101957.00;;;4.30
20103;BMP180;10210;52.284;9.892;2023-03-01T02:41:37;101964.00;;;4.30
20103;BMP180;10210;52.284;9.892;2023-03-01T02:44:04;101952.00;;;4.30
20103;BMP180;10210;52.284;9.892;2023-03-01T02:46:31;101945.00;;;4.30
20103;BMP180;10210;52.284;9.892;2023-03-01T02:48:58;101951.00;;;4.30
20103;BMP180;10210;52.284;9.892;2023-03-01T02:51:39;101936.00;;;4.30
20103;BMP180;10210;52.284;9.892;2023-03-01T02:54:33;101951.00;;;4.20
20103;BMP180;10210;52.284;9.892;2023-03-01T02:57:02;101938.00;;;4.20
20103;BMP180;10210;52.284;9.892;2023-03-01T02:59:33;101941.00;;;4.20
20103;BMP180;10210;52.284;9.892;2023-03-01T03:02:06;101943.00;;;4.10
20103;BMP180;10210;52.284;9.892;2023-03-01T03:04:31;101934.00;;;4.10
20103;BMP180;10210;52.284;9.892;2023-03-01T03:06:57;101931.00;;;4.00
20103;BMP180;10210;52.284;9.892;2023-03-01T03:09:23;101931.00;;;4.00
20103;BMP180;10210;52.284;9.892;2023-03-01T03:11:48;101937.00;;;4.00
20103;BMP180;10210;52.284;9.892;2023-03-01T03:14:16;101925.00;;;4.00
20103;BMP180;10210;52.284;9.892;2023-03-01T03:16:49;101926.00;;;4.00
20103;BMP180;10210;52.284;9.892;2023-03-01T03:19:17;101928.00;;;3.90
20103;BMP180;10210;52.284;9.892;2023-03-01T03:21:43;101925.00;;;3.90
20103;BMP180;10210;52.284;9.892;2023-03-01T03:24:09;101914.00;;;3.90
20103;BMP180;10210;52.284;9.892;2023-03-01T03:26:35;101906.00;;;3.90
20103;BMP180;10210;52.284;9.892;2023-03-01T03:29:01;101914.00;;;3.90
20103;BMP180;10210;52.284;9.892;2023-03-01T03:31:27;101913.00;;;3.80
20103;BMP180;10210;52.284;9.892;2023-03-01T03:33:53;101906.00;;;3.80
20103;BMP180;10210;52.284;9.892;2023-03-01T03:36:22;101907.00;;;3.80
20103;BMP180;10210;52.284;9.892;2023-03-01T03:38:48;101912.00;;;3.80
20103;BMP180;10210;52.284;9.892;2023-03-01T03:41:15;101907.00;;;3.80
20103;BMP180;10210;52.284;9.892;2023-03-01T03:43:43;101903.00;;;3.80
20103;BMP180;10210;52.284;9.892;2023-03-01T03:46:11;101905.00;;;3.80
20103;BMP180;10210;52.284;9.892;2023-03-01T03:48:42;101905.00;;;3.70
20103;BMP180;10210;52.284;9.892;2023-03-01T03:51:15;101907.00;;;3.70
20103;BMP180;10210;52.284;9.892;2023-03-01T03:53:41;101909.00;;;3.60
20103;BMP180;10210;52.284;9.892;2023-03-01T03:56:07;101920.00;;;3.60
20103;BMP180;10210;52.284;9.892;2023-03-01T03:58:33;101906.00;;;3.60
20103;BMP180;10210;52.284;9.892;2023-03-01T04:00:59;101905.00;;;3.50
20103;BMP180;10210;52.284;9.892;2023-03-01T04:03:28;101911.00;;;3.50
20103;BMP180;10210;52.284;9.892;2023-03-01T04:05:57;101913.00;;;3.40
20103;BMP180;10210;52.284;9.892;2023-03-01T04:08:24;101917.00;;;3.40
20103;BMP180;10210;52.284;9.892;2023-03-01T04:10:56;101911.00;;;3.40
20103;BMP180;10210;52.284;9.892;2023-03-01T04:13:22;101913.00;;;3.40
20103;BMP180;10210;52.284;9.892;2023-03-01T04:15:52;101914.00;;;3.30
20103;BMP180;10210;52.284;9.892;2023-03-01T04:18:22;101920.00;;;3.40
20103;BMP180;10210;52.284;9.892;2023-03-01T04:20:50;101919.00;;;3.30
20103;BMP180;10210;52.284;9.892;2023-03-01T04:23:20;101912.00;;;3.40
20103;BMP180;10210;52.284;9.892;2023-03-01T04:28:25;101915.00;;;3.30
20103;BMP180;10210;52.284;9.892;2023-03-01T04:30:52;101924.00;;;3.30
20103;BMP180;10210;52.284;9.892;2023-03-01T04:33:18;101921.00;;;3.20
20103;BMP180;10210;52.284;9.892;2023-03-01T04:35:44;101919.00;;;3.20
20103;BMP180;10210;52.284;9.892;2023-03-01T04:38:10;101924.00;;;3.20
20103;BMP180;10210;52.284;9.892;2023-03-01T04:40:36;101931.00;;;3.20
20103;BMP180;10210;52.284;9.892;2023-03-01T04:43:03;101936.00;;;3.20
20103;BMP180;10210;52.284;9.892;2023-03-01T04:45:31;101921.00;;;3.20
20103;BMP180;10210;52.284;9.892;2023-03-01T04:47:57;101918.00;;;3.20
20103;BMP180;10210;52.284;9.892;2023-03-01T04:50:24;101920.00;;;3.30
20103;BMP180;10210;52.284;9.892;2023-03-01T04:52:51;101922.00;;;3.20
20103;BMP180;10210;52.284;9.892;2023-03-01T04:55:18;101918.00;;;3.30
20103;BMP180;10210;52.284;9.892;2023-03-01T04:57:44;101927.00;;;3.30
20103;BMP180;10210;52.284;9.892;2023-03-01T05:00:14;101914.00;;;3.30
20103;BMP180;10210;52.284;9.892;2023-03-01T05:02:55;101922.00;;;3.20
20103;BMP180;10210;52.284;9.892;2023-03-01T05:05:34;101932.00;;;3.20
20103;BMP180;10210;52.284;9.892;2023-03-01T05:08:04;101922.00;;;3.20
20103;BMP180;10210;52.284;9.892;2023-03-01T05:10:34;101913.00;;;3.20
20103;BMP180;10210;52.284;9.892;2023-03-01T05:13:02;101911.00;;;3.20
20103;BMP180;10210;52.284;9.892;2023-03-01T05:15:30;101918.00;;;3.20
20103;BMP180;10210;52.284;9.892;2023-03-01T05:17:59;101909.00;;;3.20
20103;BMP180;10210;52.284;9.892;2023-03-01T05:20:27;101912.00;;;3.10
20103;BMP180;10210;52.284;9.892;2023-03-01T05:22:59;101904.00;;;3.10
20103;BMP180;10210;52.284;9.892;2023-03-01T05:25:26;101891.00;;;3.10
20103;BMP180;10210;52.284;9.892;2023-03-01T05:27:52;101884.00;;;3.00
20103;BMP180;10210;52.284;9.892;2023-03-01T05:30:19;101886.00;;;3.00
20103;BMP180;10210;52.284;9.892;2023-03-01T05:32:49;101888.00;;;3.00
20103;BMP180;10210;52.284;9.892;2023-03-01T05:35:17;101888.00;;;3.00
20103;BMP180;10210;52.284;9.892;2023-03-01T05:37:46;101898.00;;;2.90
20103;BMP180;10210;52.284;9.892;2023-03-01T05:40:17;101886.00;;;2.90
20103;BMP180;10210;52.284;9.892;2023-03-01T05:42:56;101897.00;;;2.90
20103;BMP180;10210;52.284;9.892;2023-03-01T05:45:25;101897.00;;;2.90
20103;BMP180;10210;52.284;9.892;2023-03-01T05:47:51;101883.00;;;2.90
20103;BMP180;10210;52.284;9.892;2023-03-01T05:50:27;101896.00;;;2.90
20103;BMP180;10210;52.284;9.892;2023-03-01T05:53:16;101907.00;;;2.80
20103;BMP180;10210;52.284;9.892;2023-03-01T05:55:43;101895.00;;;2.80
20103;BMP180;10210;52.284;9.892;2023-03-01T05:58:14;101902.00;;;2.80
20103;BMP180;10210;52.284;9.892;2023-03-01T06:00:40;101904.00;;;2.80
20103;BMP180;10210;52.284;9.892;2023-03-01T06:03:08;101904.00;;;2.80
20103;BMP180;10210;52.284;9.892;2023-03-01T06:05:35;101905.00;;;2.80
20103;BMP180;10210;52.284;9.892;2023-03-01T06:08:01;101893.00;;;2.80
20103;BMP180;10210;52.284;9.892;2023-03-01T06:10:29;101901.00;;;2.80
20103;BMP180;10210;52.284;9.892;2023-03-01T06:12:55;101902.00;;;2.80
20103;BMP180;10210;52.284;9.892;2023-03-01T06:15:22;101900.00;;;2.70
20103;BMP180;10210;52.284;9.892;2023-03-01T06:17:48;101897.00;;;2.70
20103;BMP180;10210;52.284;9.892;2023-03-01T06:20:20;101901.00;;;2.70
20103;BMP180;10210;52.284;9.892;2023-03-01T06:22:47;101898.00;;;2.70
20103;BMP180;10210;52.284;9.892;2023-03-01T06:25:19;101885.00;;;2.80
20103;BMP180;10210;52.284;9.892;2023-03-01T06:27:45;101903.00;;;2.80
20103;BMP180;10210;52.284;9.892;2023-03-01T06:30:15;101895.00;;;2.90
20103;BMP180;10210;52.284;9.892;2023-03-01T06:32:41;101898.00;;;3.00
20103;BMP180;10210;52.284;9.892;2023-03-01T06:35:15;101908.00;;;3.20
20103;BMP180;10210;52.284;9.892;2023-03-01T06:37:45;101905.00;;;3.40
20103;BMP180;10210;52.284;9.892;2023-03-01T06:40:12;101909.00;;;3.60
20103;BMP180;10210;52.284;9.892;2023-03-01T06:42:42;101910.00;;;3.80
20103;BMP180;10210;52.284;9.892;2023-03-01T06:45:10;101905.00;;;4.00
20103;BMP180;10210;52.284;9.892;2023-03-01T06:47:38;101908.00;;;4.10
20103;BMP180;10210;52.284;9.892;2023-03-01T06:50:04;101906.00;;;4.20
20103;BMP180;10210;52.284;9.892;2023-03-01T06:52:30;101910.00;;;4.20
20103;BMP180;10210;52.284;9.892;2023-03-01T06:54:56;101903.00;;;4.10
20103;BMP180;10210;52.284;9.892;2023-03-01T06:57:22;101901.00;;;4.10
20103;BMP180;10210;52.284;9.892;2023-03-01T06:59:47;101906.00;;;4.00
20103;BMP180;10210;52.284;9.892;2023-03-01T07:02:14;101913.00;;;4.00
20103;BMP180;10210;52.284;9.892;2023-03-01T07:04:41;101906.00;;;3.90
20103;BMP180;10210;52.284;9.892;2023-03-01T07:07:07;101905.00;;;3.90
20103;BMP180;10210;52.284;9.892;2023-03-01T07:09:33;101902.00;;;3.80
20103;BMP180;10210;52.284;9.892;2023-03-01T07:11:59;101893.00;;;3.80
20103;BMP180;10210;52.284;9.892;2023-03-01T07:14:25;101893.00;;;3.70
20103;BMP180;10210;52.284;9.892;2023-03-01T07:16:52;101888.00;;;3.70
20103;BMP180;10210;52.284;9.892;2023-03-01T07:19:18;101909.00;;;3.70
20103;BMP180;10210;52.284;9.892;2023-03-01T07:21:44;101893.00;;;3.60
20103;BMP180;10210;52.284;9.892;2023-03-01T07:24:10;101897.00;;;3.60
20103;BMP180;10210;52.284;9.892;2023-03-01T07:26:37;101886.00;;;3.50
20103;BMP180;10210;52.284;9.892;2023-03-01T07:29:07;101887.00;;;3.50
20103;BMP180;10210;52.284;9.892;2023-03-01T07:31:34;101882.00;;;3.50
20103;BMP180;10210;52.284;9.892;2023-03-01T07:34:01;101873.00;;;3.40
20103;BMP180;10210;52.284;9.892;2023-03-01T07:36:27;101875.00;;;3.40
20103;BMP180;10210;52.284;9.892;2023-03-01T07:38:52;101870.00;;;3.40
20103;BMP180;10210;52.284;9.892;2023-03-01T07:41:18;101870.00;;;3.40
20103;BMP180;10210;52.284;9.892;2023-03-01T07:43:44;101869.00;;;3.40
20103;BMP180;10210;52.284;9.892;2023-03-01T07:46:10;101878.00;;;3.40
20103;BMP180;10210;52.284;9.892;2023-03-01T07:48:36;101859.00;;;3.40
20103;BMP180;10210;52.284;9.892;2023-03-01T07:51:04;101870.00;;;3.40
20103;BMP180;10210;52.284;9.892;2023-03-01T07:53:30;101869.00;;;3.30
20103;BMP180;10210;52.284;9.892;2023-03-01T07:56:10;101869.00;;;3.30
20103;BMP180;10210;52.284;9.892;2023-03-01T07:58:40;101878.00;;;3.40
20103;BMP180;10210;52.284;9.892;2023-03-01T08:01:09;101881.00;;;3.40
20103;BMP180;10210;52.284;9.892;2023-03-01T08:03:36;101872.00;;;3.40
20103;BMP180;10210;52.284;9.892;2023-03-01T08:06:05;101887.00;;;3.40
20103;BMP180;10210;52.284;9.892;2023-03-01T08:08:31;101874.00;;;3.50
20103;BMP180;10210;52.284;9.892;2023-03-01T08:10:58;101875.00;;;3.50
20103;BMP180;10210;52.284;9.892;2023-03-01T08:13:25;101876.00;;;3.60
20103;BMP180;10210;52.284;9.892;2023-03-01T08:15:51;101875.00;;;3.90
20103;BMP180;10210;52.284;9.892;2023-03-01T08:18:20;101870.00;;;4.30
20103;BMP180;10210;52.284;9.892;2023-03-01T08:20:49;101877.00;;;5.00
20103;BMP180;10210;52.284;9.892;2023-03-01T08:23:16;101870.00;;;5.60
20103;BMP180;10210;52.284;9.892;2023-03-01T08:25:41;101870.00;;;5.90
20103;BMP180;10210;52.284;9.892;2023-03-01T08:28:07;101874.00;;;6.00
20103;BMP180;10210;52.284;9.892;2023-03-01T08:30:36;101870.00;;;6.00
20103;BMP180;10210;52.284;9.892;2023-03-01T08:33:04;101884.00;;;5.90
20103;BMP180;10210;52.284;9.892;2023-03-01T08:35:30;101873.00;;;5.80
20103;BMP180;10210;52.284;9.892;2023-03-01T08:37:55;101874.00;;;5.70
20103;BMP180;10210;52.284;9.892;2023-03-01T08:40:21;101872.00;;;5.60
20103;BMP180;10210;52.284;9.892;2023-03-01T08:42:47;101858.00;;;5.50
20103;BMP180;10210;52.284;9.892;2023-03-01T08:45:21;101857.00;;;5.50
20103;BMP180;10210;52.284;9.892;2023-03-01T08:47:47;101870.00;;;5.80
20103;BMP180;10210;52.284;9.892;2023-03-01T08:50:13;101878.00;;;6.20
20103;BMP180;10210;52.284;9.892;2023-03-01T08:52:38;101882.00;;;6.80
20103;BMP180;10210;52.284;9.892;2023-03-01T08:55:05;101880.00;;;7.50
20103;BMP180;10210;52.284;9.892;2023-03-01T08:57:31;101877.00;;;8.10
20103;BMP180;10210;52.284;9.892;2023-03-01T08:59:56;101888.00;;;8.80
20103;BMP180;10210;52.284;9.892;2023-03-01T09:02:22;101883.00;;;9.50
20103;BMP180;10210;52.284;9.892;2023-03-01T09:04:48;101883.00;;;10.00
20103;BMP180;10210;52.284;9.892;2023-03-01T09:07:13;101884.00;;;10.50
20103;BMP180;10210;52.284;9.892;2023-03-01T09:09:39;101882.00;;;11.00
20103;BMP180;10210;52.284;9.892;2023-03-01T09:12:05;101876.00;;;11.30
20103;BMP180;10210;52.284;9.892;2023-03-01T09:14:31;101878.00;;;11.70
20103;BMP180;10210;52.284;9.892;2023-03-01T09:16:56;101871.00;;;12.00
20103;BMP180;10210;52.284;9.892;2023-03-01T09:19:22;101879.00;;;12.30
20103;BMP180;10210;52.284;9.892;2023-03-01T09:21:48;101879.00;;;12.50
20103;BMP180;10210;52.284;9.892;2023-03-01T09:24:23;101874.00;;;12.70
20103;BMP180;10210;52.284;9.892;2023-03-01T09:26:53;101881.00;;;12.80
20103;BMP180;10210;52.284;9.892;2023-03-01T09:29:19;101877.00;;;12.90
20103;BMP180;10210;52.284;9.892;2023-03-01T09:31:45;101869.00;;;12.90
20103;BMP180;10210;52.284;9.892;2023-03-01T09:34:10;101873.00;;;12.90
20103;BMP180;10210;52.284;9.892;2023-03-01T09:36:38;101874.00;;;12.90
20103;BMP180;10210;52.284;9.892;2023-03-01T09:39:05;101870.00;;;12.80
20103;BMP180;10210;52.284;9.892;2023-03-01T09:42:03;101872.00;;;12.70
20103;BMP180;10210;52.284;9.892;2023-03-01T09:47:33;101854.00;;;12.40
20103;BMP180;10210;52.284;9.892;2023-03-01T09:50:19;101859.00;;;12.20
20103;BMP180;10210;52.284;9.892;2023-03-01T10:04:28;101864.00;;;12.00
20103;BMP180;10210;52.284;9.892;2023-03-01T10:10:33;101855.00;;;11.80
20103;BMP180;10210;52.284;9.892;2023-03-01T10:13:22;101863.00;;;11.70
20103;BMP180;10210;52.284;9.892;2023-03-01T10:15:55;101862.00;;;11.70
20103;BMP180;10210;52.284;9.892;2023-03-01T10:18:27;101864.00;;;11.60
20103;BMP180;10210;52.284;9.892;2023-03-01T10:21:19;101870.00;;;11.40
20103;BMP180;10210;52.284;9.892;2023-03-01T10:23:46;101860.00;;;11.40
20103;BMP180;10210;52.284;9.892;2023-03-01T10:26:47;101870.00;;;11.20
20103;BMP180;10210;52.284;9.892;2023-03-01T10:29:13;101863.00;;;11.20
20103;BMP180;10210;52.284;9.892;2023-03-01T10:31:52;101854.00;;;11.00
20103;BMP180;10210;52.284;9.892;2023-03-01T10:34:37;101857.00;;;10.90
20103;BMP180;10210;52.284;9.892;2023-03-01T10:37:15;101861.00;;;10.90
20103;BMP180;10210;52.284;9.892;2023-03-01T10:42:34;101852.00;;;10.60
20103;BMP180;10210;52.284;9.892;2023-03-01T10:48:21;101832.00;;;10.30
20103;BMP180;10210;52.284;9.892;2023-03-01T10:51:15;101847.00;;;10.20
20103;BMP180;10210;52.284;9.892;2023-03-01T10:53:49;101854.00;;;10.10
20103;BMP180;10210;52.284;9.892;2023-03-01T10:56:16;101855.00;;;9.90
20103;BMP180;10210;52.284;9.892;2023-03-01T10:59:04;101842.00;;;9.80
20103;BMP180;10210;52.284;9.892;2023-03-01T11:01:34;101849.00;;;9.70
20103;BMP180;10210;52.284;9.892;2023-03-01T11:06:37;101847.00;;;9.60
20103;BMP180;10210;52.284;9.892;2023-03-01T11:09:24;101837.00;;;9.50
20103;BMP180;10210;52.284;9.892;2023-03-01T11:11:55;101835.00;;;9.50
20103;BMP180;10210;52.284;9.892;2023-03-01T11:14:23;101827.00;;;9.60
20103;BMP180;10210;52.284;9.892;2023-03-01T11:20:00;101823.00;;;9.60
20103;BMP180;10210;52.284;9.892;2023-03-01T11:22:26;101830.00;;;9.60
20103;BMP180;10210;52.284;9.892;2023-03-01T11:24:55;101827.00;;;9.70
20103;BMP180;10210;52.284;9.892;2023-03-01T11:27:40;101827.00;;;9.70
20103;BMP180;10210;52.284;9.892;2023-03-01T11:30:29;101823.00;;;9.70
20103;BMP180;10210;52.284;9.892;2023-03-01T11:35:41;101822.00;;;9.80
20103;BMP180;10210;52.284;9.892;2023-03-01T11:38:21;101829.00;;;9.90
20103;BMP180;10210;52.284;9.892;2023-03-01T11:41:14;101816.00;;;9.90
20103;BMP180;10210;52.284;9.892;2023-03-01T11:44:14;101820.00;;;9.90
20103;BMP180;10210;52.284;9.892;2023-03-01T11:52:53;101800.00;;;10.10
20103;BMP180;10210;52.284;9.892;2023-03-01T11:55:46;101803.00;;;10.20
20103;BMP180;10210;52.284;9.892;2023-03-01T12:01:40;101799.00;;;10.40
20103;BMP180;10210;52.284;9.892;2023-03-01T12:07:21;101796.00;;;10.40
20103;BMP180;10210;52.284;9.892;2023-03-01T12:10:36;101788.00;;;10.40
20103;BMP180;10210;52.284;9.892;2023-03-01T12:13:15;101794.00;;;10.50
20103;BMP180;10210;52.284;9.892;2023-03-01T12:19:14;101776.00;;;10.70
20103;BMP180;10210;52.284;9.892;2023-03-01T12:25:05;101773.00;;;10.80
20103;BMP180;10210;52.284;9.892;2023-03-01T12:33:57;101765.00;;;10.90
20103;BMP180;10210;52.284;9.892;2023-03-01T12:37:10;101765.00;;;10.90
20103;BMP180;10210;52.284;9.892;2023-03-01T12:40:38;101750.00;;;11.00
20103;BMP180;10210;52.284;9.892;2023-03-01T12:43:39;101744.00;;;11.10
20103;BMP180;10210;52.284;9.892;2023-03-01T12:46:07;101750.00;;;11.10
20103;BMP180;10210;52.284;9.892;2023-03-01T12:51:36;101720.00;;;11.20
20103;BMP180;10210;52.284;9.892;2023-03-01T12:54:22;101726.00;;;11.20
20103;BMP180;10210;52.284;9.892;2023-03-01T12:56:50;101723.00;;;11.30
20103;BMP180;10210;52.284;9.892;2023-03-01T12:59:45;101718.00;;;11.40
20103;BMP180;10210;52.284;9.892;2023-03-01T13:02:32;101726.00;;;11.40
20103;BMP180;10210;52.284;9.892;2023-03-01T13:05:26;101718.00;;;11.50
20103;BMP180;10210;52.284;9.892;2023-03-01T13:08:23;101720.00;;;11.50
20103;BMP180;10210;52.284;9.892;2023-03-01T13:11:00;101717.00;;;11.50
20103;BMP180;10210;52.284;9.892;2023-03-01T13:13:29;101718.00;;;11.60
20103;BMP180;10210;52.284;9.892;2023-03-01T13:15:55;101708.00;;;11.60
20103;BMP180;10210;52.284;9.892;2023-03-01T13:20:56;101706.00;;;11.80
20103;BMP180;10210;52.284;9.892;2023-03-01T13:26:15;101703.00;;;11.80
20103;BMP180;10210;52.284;9.892;2023-03-01T13:34:03;101692.00;;;12.00
20103;BMP180;10210;52.284;9.892;2023-03-01T13:39:39;101688.00;;;12.00
20103;BMP180;10210;52.284;9.892;2023-03-01T13:42:37;101697.00;;;12.10
20103;BMP180;10210;52.284;9.892;2023-03-01T13:45:38;101692.00;;;12.10
20103;BMP180;10210;52.284;9.892;2023-03-01T13:48:24;101682.00;;;12.10
20103;BMP180;10210;52.284;9.892;2023-03-01T13:50:59;101678.00;;;12.20
20103;BMP180;10210;52.284;9.892;2023-03-01T13:53:55;101677.00;;;12.20
20103;BMP180;10210;52.284;9.892;2023-03-01T13:56:26;101673.00;;;12.30
20103;BMP180;10210;52.284;9.892;2023-03-01T13:58:59;101675.00;;;12.30
20103;BMP180;10210;52.284;9.892;2023-03-01T14:01:31;101669.00;;;12.40
20103;BMP180;10210;52.284;9.892;2023-03-01T14:03:58;101667.00;;;12.50
20103;BMP180;10210;52.284;9.892;2023-03-01T14:06:30;101674.00;;;12.50
20103;BMP180;10210;52.284;9.892;2023-03-01T14:09:16;101671.00;;;12.50
20103;BMP180;10210;52.284;9.892;2023-03-01T14:12:12;101661.00;;;12.50
20103;BMP180;10210;52.284;9.892;2023-03-01T14:15:02;101674.00;;;12.60
20103;BMP180;10210;52.284;9.892;2023-03-01T14:17:58;101659.00;;;12.60
20103;BMP180;10210;52.284;9.892;2023-03-01T14:20:31;101659.00;;;12.70
20103;BMP180;10210;52.284;9.892;2023-03-01T14:23:18;101658.00;;;12.60
20103;BMP180;10210;52.284;9.892;2023-03-01T14:25:50;101662.00;;;12.60
20103;BMP180;10210;52.284;9.892;2023-03-01T14:28:27;101660.00;;;12.60
20103;BMP180;10210;52.284;9.892;2023-03-01T14:30:57;101655.00;;;12.70
20103;BMP180;10210;52.284;9.892;2023-03-01T14:33:31;101649.00;;;12.70
20103;BMP180;10210;52.284;9.892;2023-03-01T14:36:08;101658.00;;;12.70
20103;BMP180;10210;52.284;9.892;2023-03-01T14:38:47;101651.00;;;12.80
20103;BMP180;10210;52.284;9.892;2023-03-01T14:41:22;101644.00;;;12.80
20103;BMP180;10210;52.284;9.892;2023-03-01T14:43:56;101638.00;;;12.80
20103;BMP180;10210;52.284;9.892;2023-03-01T14:46:33;101636.00;;;12.90
20103;BMP180;10210;52.284;9.892;2023-03-01T14:49:10;101643.00;;;12.90
20103;BMP180;10210;52.284;9.892;2023-03-01T14:51:40;101631.00;;;12.90
20103;BMP180;10210;52.284;9.892;2023-03-01T14:56:47;101625.00;;;12.80
20103;BMP180;10210;52.284;9.892;2023-03-01T14:59:13;101641.00;;;12.80
20103;BMP180;10210;52.284;9.892;2023-03-01T15:01:41;101622.00;;;12.80
20103;BMP180;10210;52.284;9.892;2023-03-01T15:04:12;101629.00;;;12.80
20103;BMP180;10210;52.284;9.892;2023-03-01T15:06:38;101631.00;;;12.80
20103;BMP180;10210;52.284;9.892;2023-03-01T15:09:04;101622.00;;;12.80
20103;BMP180;10210;52.284;9.892;2023-03-01T15:11:33;101627.00;;;12.80
20103;BMP180;10210;52.284;9.892;2023-03-01T15:13:59;101618.00;;;12.80
20103;BMP180;10210;52.284;9.892;2023-03-01T15:16:29;101612.00;;;12.70
20103;BMP180;10210;52.284;9.892;2023-03-01T15:19:06;101606.00;;;12.70
20103;BMP180;10210;52.284;9.892;2023-03-01T15:21:35;101607.00;;;12.70
20103;BMP180;10210;52.284;9.892;2023-03-01T15:24:16;101604.00;;;12.60
20103;BMP180;10210;52.284;9.892;2023-03-01T15:26:58;101590.00;;;12.60
20103;BMP180;10210;52.284;9.892;2023-03-01T15:29:29;101575.00;;;12.60
20103;BMP180;10210;52.284;9.892;2023-03-01T15:32:03;101588.00;;;12.60
20103;BMP180;10210;52.284;9.892;2023-03-01T15:37:00;101593.00;;;12.50
20103;BMP180;10210;52.284;9.892;2023-03-01T15:39:54;101597.00;;;12.50
20103;BMP180;10210;52.284;9.892;2023-03-01T15:42:37;101587.00;;;12.50
20103;BMP180;10210;52.284;9.892;2023-03-01T15:47:48;101573.00;;;12.50
20103;BMP180;10210;52.284;9.892;2023-03-01T15:50:29;101572.00;;;12.50
20103;BMP180;10210;52.284;9.892;2023-03-01T15:52:58;101568.00;;;12.60
20103;BMP180;10210;52.284;9.892;2023-03-01T15:55:28;101568.00;;;12.60
20103;BMP180;10210;52.284;9.892;2023-03-01T15:58:03;101565.00;;;12.60
20103;BMP180;10210;52.284;9.892;2023-03-01T16:00:30;101570.00;;;12.50
20103;BMP180;10210;52.284;9.892;2023-03-01T16:02:56;101564.00;;;12.50
20103;BMP180;10210;52.284;9.892;2023-03-01T16:05:32;101570.00;;;12.50